createdAt,value
2019-03-11T00:02:21.964Z,87.30
2019-03-11T00:04:47.982Z,88.40
2019-03-11T00:07:13.985Z,90.00
2019-03-11T00:09:40.027Z,90.60
2019-03-11T00:12:06.037Z,91.20
2019-03-11T00:14:32.048Z,91.70
2019-03-11T00:16:58.073Z,91.90
2019-03-11T00:19:24.085Z,92.50
2019-03-11T00:21:50.110Z,92.80
2019-03-11T00:24:16.153Z,93.00
2019-03-11T00:26:42.474Z,92.70
2019-03-11T00:29:08.491Z,92.70
2019-03-11T00:31:34.506Z,93.20
2019-03-11T00:34:00.521Z,93.00
2019-03-11T00:36:26.865Z,92.80
2019-03-11T00:38:52.882Z,92.80
2019-03-11T00:41:18.915Z,92.60
2019-03-11T00:43:44.930Z,92.10
2019-03-11T00:46:10.980Z,92.20
2019-03-11T00:48:37.214Z,91.70
2019-03-11T00:51:03.217Z,92.20
2019-03-11T00:53:29.237Z,92.50
2019-03-11T00:55:55.245Z,91.30
2019-03-11T00:58:21.612Z,91.20
2019-03-11T01:00:47.622Z,90.80
2019-03-11T01:03:13.686Z,90.20
2019-03-11T01:05:39.861Z,89.60
2019-03-11T01:08:05.888Z,89.20
2019-03-11T01:10:31.905Z,88.10
2019-03-11T01:12:57.928Z,88.10
2019-03-11T01:15:24.242Z,88.40
2019-03-11T01:17:50.266Z,87.60
2019-03-11T01:20:16.377Z,87.40
2019-03-11T01:22:42.406Z,86.80
2019-03-11T01:25:10.119Z,86.50
2019-03-11T01:27:36.151Z,86.60
2019-03-11T01:30:05.366Z,84.30
2019-03-11T01:32:31.379Z,83.10
2019-03-11T01:34:57.404Z,81.60
2019-03-11T01:37:23.417Z,81.10
2019-03-11T01:39:49.450Z,79.60
2019-03-11T01:42:15.458Z,77.90
2019-03-11T01:44:41.478Z,78.40
2019-03-11T01:47:07.493Z,79.00
2019-03-11T01:49:33.513Z,79.10
2019-03-11T01:51:59.548Z,81.20
2019-03-11T01:54:25.565Z,81.80
2019-03-11T01:56:51.587Z,84.00
2019-03-11T01:59:17.594Z,83.20
2019-03-11T02:01:43.623Z,84.80
2019-03-11T02:04:09.664Z,87.10
2019-03-11T02:06:35.680Z,88.60
2019-03-11T02:09:01.689Z,90.00
2019-03-11T02:11:28.207Z,90.40
2019-03-11T02:13:54.225Z,90.80
2019-03-11T02:16:20.239Z,91.40
2019-03-11T02:18:46.252Z,91.90
2019-03-11T02:21:12.276Z,92.80
2019-03-11T02:23:38.282Z,93.40
2019-03-11T02:26:04.401Z,93.00
2019-03-11T02:28:30.415Z,92.70
2019-03-11T02:30:56.427Z,92.80
2019-03-11T02:33:22.473Z,93.30
2019-03-11T02:35:48.484Z,93.30
2019-03-11T02:38:14.494Z,93.20
2019-03-11T02:40:40.521Z,92.70
2019-03-11T02:43:06.806Z,92.50
2019-03-11T02:45:32.810Z,92.40
2019-03-11T02:47:58.837Z,92.30
2019-03-11T02:50:24.883Z,91.80
2019-03-11T02:52:51.021Z,92.40
2019-03-11T02:55:17.059Z,92.70
2019-03-11T02:57:43.060Z,92.40
2019-03-11T03:00:12.690Z,92.20
2019-03-11T03:02:46.481Z,91.80
2019-03-11T03:05:17.710Z,90.50
2019-03-11T03:07:43.713Z,90.00
2019-03-11T03:10:09.962Z,89.70
2019-03-11T03:12:35.955Z,88.70
2019-03-11T03:15:01.987Z,88.30
2019-03-11T03:17:28.315Z,87.20
2019-03-11T03:19:54.334Z,87.30
2019-03-11T03:22:20.355Z,87.20
2019-03-11T03:24:46.391Z,87.50
2019-03-11T03:27:12.485Z,86.90
2019-03-11T03:29:38.514Z,85.60
2019-03-11T03:32:04.523Z,82.70
2019-03-11T03:34:30.696Z,83.20
2019-03-11T03:36:56.765Z,78.90
2019-03-11T03:39:22.783Z,76.40
2019-03-11T03:41:48.815Z,77.10
2019-03-11T03:44:15.218Z,77.50
2019-03-11T03:46:41.235Z,77.00
2019-03-11T03:49:07.306Z,76.00
2019-03-11T03:51:33.384Z,76.30
2019-03-11T03:53:59.387Z,75.70
2019-03-11T03:56:25.754Z,76.40
2019-03-11T03:58:51.773Z,75.40
2019-03-11T04:01:17.792Z,75.30
2019-03-11T04:03:43.795Z,73.80
2019-03-11T04:06:09.832Z,74.40
2019-03-11T04:08:35.853Z,73.20
2019-03-11T04:11:02.113Z,73.70
2019-03-11T04:13:28.138Z,72.40
2019-03-11T04:15:54.148Z,72.70
2019-03-11T04:18:21.264Z,71.10
2019-03-11T04:20:47.725Z,73.60
2019-03-11T04:23:13.867Z,74.30
2019-03-11T04:25:39.898Z,74.40
2019-03-11T04:28:05.898Z,75.30
2019-03-11T04:30:32.242Z,76.60
2019-03-11T04:32:58.296Z,73.00
2019-03-11T04:35:24.386Z,71.30
2019-03-11T04:37:50.615Z,70.50
2019-03-11T04:40:16.962Z,73.30
2019-03-11T04:42:43.281Z,71.60
2019-03-11T04:45:11.510Z,71.70
2019-03-11T04:47:37.528Z,71.60
2019-03-11T04:50:17.208Z,72.00
2019-03-11T04:52:43.407Z,70.70
2019-03-11T04:55:11.035Z,71.00
2019-03-11T04:57:39.827Z,70.80
2019-03-11T05:00:09.791Z,69.20
2019-03-11T05:02:35.819Z,78.10
2019-03-11T05:05:03.366Z,90.00
2019-03-11T05:07:29.373Z,95.40
2019-03-11T05:09:55.386Z,99.40
2019-03-11T05:12:21.414Z,99.90
2019-03-11T05:14:47.447Z,99.90
2019-03-11T05:17:13.740Z,99.90
2019-03-11T05:19:39.790Z,99.90
2019-03-11T05:22:05.898Z,99.90
2019-03-11T05:24:32.022Z,99.90
2019-03-11T05:26:58.171Z,99.90
2019-03-11T05:29:24.171Z,99.90
2019-03-11T05:31:50.186Z,99.90
2019-03-11T05:34:18.483Z,99.90
2019-03-11T05:36:44.445Z,98.80
2019-03-11T05:39:10.463Z,98.50
2019-03-11T05:41:36.478Z,97.40
2019-03-11T05:44:02.803Z,97.20
2019-03-11T05:46:28.842Z,96.70
2019-03-11T05:48:54.861Z,96.50
2019-03-11T05:51:31.206Z,98.60
2019-03-11T05:53:49.123Z,99.30
2019-03-11T05:56:15.127Z,99.90
2019-03-11T05:58:41.137Z,99.90
2019-03-11T06:01:07.144Z,99.90
2019-03-11T06:03:33.522Z,99.90
2019-03-11T06:05:59.527Z,99.90
2019-03-11T06:08:25.949Z,99.90
2019-03-11T06:10:51.966Z,99.90
2019-03-11T06:13:18.234Z,99.90
2019-03-11T06:15:44.666Z,99.90
2019-03-11T06:18:10.695Z,99.90
2019-03-11T06:20:44.222Z,99.90
2019-03-11T06:23:12.240Z,99.90
2019-03-11T06:25:38.283Z,99.90
2019-03-11T06:28:04.285Z,99.90
2019-03-11T06:30:30.310Z,99.90
2019-03-11T06:32:56.324Z,99.90
2019-03-11T06:35:22.355Z,99.00
2019-03-11T06:37:48.360Z,96.40
2019-03-11T06:40:14.596Z,94.00
2019-03-11T06:42:40.868Z,90.90
2019-03-11T06:45:08.979Z,84.50
2019-03-11T06:47:35.005Z,75.10
2019-03-11T06:50:01.506Z,71.50
2019-03-11T06:52:27.562Z,65.00
2019-03-11T06:54:53.566Z,59.00
2019-03-11T06:57:19.586Z,54.30
2019-03-11T06:59:45.606Z,50.20
2019-03-11T07:02:11.623Z,48.70
2019-03-11T07:04:37.950Z,46.10
2019-03-11T07:07:03.969Z,45.20
2019-03-11T07:09:30.339Z,45.30
2019-03-11T07:11:56.681Z,43.70
2019-03-11T07:14:22.693Z,41.10
2019-03-11T07:16:48.686Z,38.70
2019-03-11T07:19:14.724Z,36.20
2019-03-11T07:21:40.718Z,35.00
2019-03-11T07:24:07.075Z,33.80
2019-03-11T07:26:33.404Z,33.10
2019-03-11T07:28:59.425Z,33.70
2019-03-11T07:31:25.471Z,35.50
2019-03-11T07:33:51.565Z,37.70
2019-03-11T07:36:17.598Z,39.30
2019-03-11T07:38:43.609Z,40.30
2019-03-11T07:41:09.650Z,41.10
2019-03-11T07:43:35.680Z,41.40
2019-03-11T07:46:01.745Z,41.20
2019-03-11T07:48:27.910Z,39.50
2019-03-11T07:50:53.930Z,40.30
2019-03-11T07:53:20.280Z,40.60
2019-03-11T07:55:46.309Z,39.30
2019-03-11T07:58:12.321Z,38.10
2019-03-11T08:00:38.659Z,38.30
2019-03-11T08:03:04.978Z,37.00
2019-03-11T08:05:30.986Z,36.60
2019-03-11T08:07:57.056Z,35.20
2019-03-11T08:10:24.222Z,35.00
2019-03-11T08:12:50.254Z,34.70
2019-03-11T08:15:16.557Z,33.30
2019-03-11T08:17:42.583Z,31.40
2019-03-11T08:20:10.008Z,32.20
2019-03-11T08:22:36.042Z,31.60
2019-03-11T08:25:04.018Z,31.80
2019-03-11T08:27:30.033Z,31.40
2019-03-11T08:29:56.054Z,31.70
2019-03-11T08:32:22.076Z,31.60
2019-03-11T08:34:48.089Z,31.30
2019-03-11T08:37:14.125Z,32.40
2019-03-11T08:39:40.228Z,33.60
2019-03-11T08:42:06.294Z,34.40
2019-03-11T08:44:32.324Z,34.20
2019-03-11T08:46:58.353Z,34.80
2019-03-11T08:49:24.449Z,36.70
2019-03-11T08:51:50.693Z,39.30
2019-03-11T08:54:16.728Z,40.00
2019-03-11T08:56:43.046Z,41.60
2019-03-11T08:59:09.066Z,42.10
2019-03-11T09:01:35.406Z,42.20
2019-03-11T09:04:01.435Z,42.10
2019-03-11T09:06:27.709Z,42.30
2019-03-11T09:08:53.754Z,43.60
2019-03-11T09:11:20.006Z,44.20
2019-03-11T09:13:46.033Z,47.60
2019-03-11T09:16:12.041Z,49.80
2019-03-11T09:18:38.410Z,53.40
2019-03-11T09:21:05.120Z,54.90
2019-03-11T09:23:31.735Z,57.20
2019-03-11T09:25:57.785Z,58.70
2019-03-11T09:28:23.851Z,60.00
2019-03-11T09:30:50.154Z,62.60
2019-03-11T09:33:16.183Z,64.60
2019-03-11T09:35:42.193Z,65.30
2019-03-11T09:38:08.251Z,67.30
2019-03-11T09:40:34.560Z,69.10
2019-03-11T09:43:00.783Z,67.40
2019-03-11T09:45:26.803Z,67.30
2019-03-11T09:47:52.858Z,66.00
2019-03-11T09:50:18.891Z,64.40
2019-03-11T09:52:45.109Z,64.70
2019-03-11T09:55:16.046Z,65.90
2019-03-11T09:57:42.475Z,64.60
2019-03-11T10:00:16.754Z,62.90
2019-03-11T10:02:51.577Z,61.80
2019-03-11T10:05:11.330Z,55.60
2019-03-11T10:07:37.487Z,55.80
2019-03-11T10:10:10.058Z,53.20
2019-03-11T10:12:36.086Z,53.50
2019-03-11T10:15:03.900Z,53.70
2019-03-11T10:17:29.965Z,54.40
2019-03-11T10:19:55.962Z,53.70
2019-03-11T10:22:21.990Z,53.30
2019-03-11T10:24:47.995Z,53.30
2019-03-11T10:27:14.029Z,52.70
2019-03-11T10:29:40.040Z,54.10
2019-03-11T10:32:06.062Z,54.70
2019-03-11T10:34:32.079Z,54.60
2019-03-11T10:36:58.102Z,55.90
2019-03-11T10:39:24.104Z,54.60
2019-03-11T10:41:50.459Z,54.50
2019-03-11T10:44:16.490Z,54.40
2019-03-11T10:46:44.829Z,57.00
2019-03-11T10:49:10.437Z,57.70
2019-03-11T10:51:36.478Z,57.40
2019-03-11T10:54:02.582Z,59.10
2019-03-11T10:56:28.601Z,59.80
2019-03-11T10:58:54.607Z,59.10
2019-03-11T11:01:20.638Z,58.00
2019-03-11T11:03:46.646Z,55.70
2019-03-11T11:06:12.670Z,55.50
2019-03-11T11:08:38.692Z,54.60
2019-03-11T11:11:05.003Z,53.70
2019-03-11T11:13:31.393Z,55.00
2019-03-11T11:15:57.762Z,53.90
2019-03-11T11:18:24.113Z,54.20
2019-03-11T11:20:50.430Z,53.20
2019-03-11T11:23:16.502Z,52.10
2019-03-11T11:25:42.508Z,52.90
2019-03-11T11:28:08.509Z,51.40
2019-03-11T11:30:35.171Z,50.30
2019-03-11T11:33:01.185Z,50.90
2019-03-11T11:35:28.421Z,50.20
2019-03-11T11:37:54.442Z,50.20
2019-03-11T11:40:26.417Z,50.30
2019-03-11T11:42:52.440Z,48.70
2019-03-11T11:45:25.723Z,48.30
2019-03-11T11:47:52.058Z,47.70
2019-03-11T11:50:22.286Z,47.90
2019-03-11T11:52:48.917Z,49.30
2019-03-11T11:55:16.577Z,49.00
2019-03-11T11:57:42.877Z,48.90
2019-03-11T12:00:21.568Z,48.90
2019-03-11T12:02:47.967Z,49.50
2019-03-11T12:05:15.024Z,49.90
2019-03-11T12:07:41.354Z,49.40
2019-03-11T12:10:11.188Z,48.70
2019-03-11T12:12:37.216Z,47.60
2019-03-11T12:15:06.237Z,48.30
2019-03-11T12:17:32.254Z,48.60
2019-03-11T12:19:58.280Z,49.80
2019-03-11T12:22:24.278Z,49.40
2019-03-11T12:24:50.324Z,48.90
2019-03-11T12:27:16.377Z,49.50
2019-03-11T12:29:42.381Z,48.90
2019-03-11T12:32:08.651Z,49.30
2019-03-11T12:34:34.676Z,48.30
2019-03-11T12:37:00.733Z,48.30
2019-03-11T12:39:26.766Z,49.10
2019-03-11T12:41:53.069Z,49.80
2019-03-11T12:44:19.101Z,48.20
2019-03-11T12:46:45.119Z,49.80
2019-03-11T12:49:11.143Z,48.90
2019-03-11T12:51:37.159Z,47.30
2019-03-11T12:54:03.192Z,49.20
2019-03-11T12:56:29.216Z,49.60
2019-03-11T12:58:55.538Z,49.50
2019-03-11T13:01:21.561Z,49.20
2019-03-11T13:03:47.890Z,48.80
2019-03-11T13:06:14.225Z,48.80
2019-03-11T13:08:40.241Z,49.40
2019-03-11T13:11:06.246Z,50.90
2019-03-11T13:13:32.279Z,51.10
2019-03-11T13:15:58.312Z,52.20
2019-03-11T13:18:30.210Z,52.00
2019-03-11T13:21:01.923Z,52.70
2019-03-11T13:23:28.048Z,52.50
2019-03-11T13:25:54.294Z,53.30
2019-03-11T13:28:20.322Z,53.80
2019-03-11T13:30:46.343Z,54.60
2019-03-11T13:33:13.500Z,51.20
2019-03-11T13:35:39.548Z,51.20
2019-03-11T13:38:05.946Z,51.80
2019-03-11T13:40:32.002Z,50.40
2019-03-11T13:42:58.314Z,50.10
2019-03-11T13:45:24.681Z,49.20
2019-03-11T13:47:50.953Z,49.90
2019-03-11T13:50:17.531Z,50.00
2019-03-11T13:52:44.121Z,49.80
2019-03-11T13:55:12.042Z,49.60
2019-03-11T13:57:38.066Z,49.50
2019-03-11T14:00:10.358Z,51.60
2019-03-11T14:02:36.379Z,51.20
2019-03-11T14:05:03.692Z,50.80
2019-03-11T14:07:29.789Z,50.50
2019-03-11T14:09:55.794Z,50.10
2019-03-11T14:12:21.940Z,50.60
2019-03-11T14:14:48.388Z,51.60
2019-03-11T14:17:14.430Z,51.30
2019-03-11T14:19:40.567Z,50.70
2019-03-11T14:22:06.574Z,49.70
2019-03-11T14:24:32.891Z,50.40
2019-03-11T14:26:58.918Z,50.90
2019-03-11T14:29:24.962Z,50.40
2019-03-11T14:31:51.134Z,48.90
2019-03-11T14:34:17.254Z,50.10
2019-03-11T14:36:43.297Z,50.60
2019-03-11T14:39:09.523Z,49.00
2019-03-11T14:41:35.546Z,48.80
2019-03-11T14:44:01.598Z,49.10
2019-03-11T14:46:27.647Z,48.00
2019-03-11T14:48:53.687Z,47.60
2019-03-11T14:51:19.970Z,48.60
2019-03-11T14:53:46.327Z,49.10
2019-03-11T14:56:12.330Z,48.50
2019-03-11T14:58:38.382Z,49.00
2019-03-11T15:01:04.418Z,48.80
2019-03-11T15:03:30.437Z,47.50
2019-03-11T15:05:56.759Z,48.60
2019-03-11T15:08:23.062Z,47.30
2019-03-11T15:10:49.196Z,47.20
2019-03-11T15:13:15.327Z,45.20
2019-03-11T15:15:41.353Z,46.10
2019-03-11T15:18:07.376Z,47.20
2019-03-11T15:20:33.844Z,45.80
2019-03-11T15:23:07.715Z,47.10
2019-03-11T15:25:28.065Z,48.50
2019-03-11T15:27:54.345Z,47.70
2019-03-11T15:30:21.967Z,47.90
2019-03-11T15:32:48.187Z,48.60
2019-03-11T15:35:14.349Z,49.70
2019-03-11T15:37:40.353Z,48.90
2019-03-11T15:40:14.035Z,48.80
2019-03-11T15:42:40.077Z,48.20
2019-03-11T15:45:09.130Z,48.90
2019-03-11T15:47:35.242Z,47.70
2019-03-11T15:50:01.332Z,47.70
2019-03-11T15:52:27.517Z,47.40
2019-03-11T15:54:53.931Z,49.50
2019-03-11T15:57:19.968Z,47.80
2019-03-11T15:59:45.985Z,47.80
2019-03-11T16:02:12.131Z,48.00
2019-03-11T16:04:38.163Z,48.40
2019-03-11T16:07:04.455Z,49.50
2019-03-11T16:09:30.539Z,47.60
2019-03-11T16:11:56.579Z,48.80
2019-03-11T16:14:22.606Z,48.70
2019-03-11T16:16:48.694Z,50.10
2019-03-11T16:19:14.792Z,49.30
2019-03-11T16:21:41.203Z,49.00
2019-03-11T16:24:07.217Z,49.50
2019-03-11T16:26:33.269Z,49.80
2019-03-11T16:28:59.382Z,50.00
2019-03-11T16:31:25.389Z,50.10
2019-03-11T16:33:51.734Z,50.20
2019-03-11T16:36:17.774Z,50.60
2019-03-11T16:38:44.191Z,51.10
2019-03-11T16:41:10.206Z,51.00
2019-03-11T16:43:36.223Z,51.40
2019-03-11T16:46:04.500Z,52.30
2019-03-11T16:48:30.539Z,52.90
2019-03-11T16:50:56.588Z,54.10
2019-03-11T16:53:22.626Z,52.60
2019-03-11T16:55:50.579Z,53.10
2019-03-11T16:58:16.907Z,52.20
2019-03-11T17:00:45.069Z,53.20
2019-03-11T17:03:11.511Z,53.50
2019-03-11T17:05:37.651Z,53.90
2019-03-11T17:08:03.963Z,53.50
2019-03-11T17:10:29.982Z,53.10
2019-03-11T17:12:55.990Z,52.90
2019-03-11T17:15:22.007Z,52.60
2019-03-11T17:17:48.042Z,52.60
2019-03-11T17:20:15.469Z,52.70
2019-03-11T17:22:41.747Z,53.00
2019-03-11T17:25:09.871Z,52.50
2019-03-11T17:27:35.902Z,53.40
2019-03-11T17:30:07.748Z,53.30
2019-03-11T17:32:33.777Z,53.10
2019-03-11T17:34:59.796Z,53.60
2019-03-11T17:37:25.829Z,52.90
2019-03-11T17:39:51.861Z,53.50
2019-03-11T17:42:17.908Z,54.70
2019-03-11T17:44:44.002Z,54.50
2019-03-11T17:47:10.047Z,54.30
2019-03-11T17:49:36.059Z,55.10
2019-03-11T17:52:02.278Z,56.80
2019-03-11T17:54:28.287Z,56.30
2019-03-11T17:56:54.344Z,55.90
2019-03-11T17:59:20.427Z,56.60
2019-03-11T18:01:46.439Z,56.80
2019-03-11T18:04:12.705Z,57.00
2019-03-11T18:06:38.807Z,57.30
2019-03-11T18:09:04.832Z,57.00
2019-03-11T18:11:30.830Z,57.40
2019-03-11T18:13:56.858Z,58.40
2019-03-11T18:16:22.982Z,58.50
2019-03-11T18:18:49.002Z,59.90
2019-03-11T18:21:15.013Z,59.40
2019-03-11T18:23:41.470Z,60.20
2019-03-11T18:26:08.073Z,60.00
2019-03-11T18:28:34.246Z,60.50
2019-03-11T18:31:00.341Z,60.20
2019-03-11T18:33:26.362Z,60.90
2019-03-11T18:35:52.384Z,61.70
2019-03-11T18:38:18.408Z,61.00
2019-03-11T18:40:44.466Z,62.30
2019-03-11T18:43:20.104Z,61.90
2019-03-11T18:45:38.875Z,61.40
2019-03-11T18:48:05.563Z,61.50
2019-03-11T18:50:31.688Z,62.70
2019-03-11T18:52:57.750Z,62.30
2019-03-11T18:55:23.891Z,62.70
2019-03-11T18:57:50.081Z,64.00
2019-03-11T19:00:17.357Z,64.30
2019-03-11T19:02:43.377Z,63.10
2019-03-11T19:05:12.578Z,63.90
2019-03-11T19:07:39.042Z,63.40
2019-03-11T19:10:08.303Z,64.50
2019-03-11T19:12:34.409Z,63.60
2019-03-11T19:15:00.483Z,64.20
2019-03-11T19:17:26.512Z,64.80
2019-03-11T19:19:52.827Z,67.80
2019-03-11T19:22:18.878Z,65.60
2019-03-11T19:24:44.974Z,65.60
2019-03-11T19:27:11.038Z,66.20
2019-03-11T19:29:37.178Z,65.50
2019-03-11T19:32:05.462Z,65.90
2019-03-11T19:34:31.599Z,66.00
2019-03-11T19:36:57.671Z,65.20
2019-03-11T19:39:23.859Z,66.00
2019-03-11T19:41:49.934Z,68.40
2019-03-11T19:44:16.185Z,65.70
2019-03-11T19:46:42.856Z,66.60
2019-03-11T19:49:08.890Z,67.10
2019-03-11T19:51:34.927Z,66.50
2019-03-11T19:54:01.453Z,67.60
2019-03-11T19:56:27.549Z,67.70
2019-03-11T19:58:53.676Z,67.90
2019-03-11T20:01:20.400Z,69.50
2019-03-11T20:03:46.503Z,68.80
2019-03-11T20:06:15.566Z,70.40
2019-03-11T20:08:41.611Z,72.10
2019-03-11T20:11:07.738Z,69.50
2019-03-11T20:13:36.405Z,70.00
2019-03-11T20:16:01.738Z,68.90
2019-03-11T20:18:28.315Z,69.90
2019-03-11T20:20:54.643Z,69.70
2019-03-11T20:23:21.050Z,70.00
2019-03-11T20:25:47.357Z,71.30
2019-03-11T20:28:13.420Z,70.10
2019-03-11T20:30:39.589Z,69.50
2019-03-11T20:33:06.056Z,70.10
2019-03-11T20:35:32.066Z,69.90
2019-03-11T20:37:58.164Z,68.80
2019-03-11T20:40:24.355Z,69.50
2019-03-11T20:42:50.604Z,68.90
2019-03-11T20:45:17.929Z,69.20
2019-03-11T20:47:44.626Z,70.60
2019-03-11T20:50:13.221Z,70.60
2019-03-11T20:52:39.232Z,71.60
2019-03-11T20:55:11.521Z,71.70
2019-03-11T20:57:37.635Z,74.10
2019-03-11T21:00:07.562Z,71.20
2019-03-11T21:02:33.659Z,70.50
2019-03-11T21:04:59.989Z,69.10
2019-03-11T21:07:26.031Z,71.00
2019-03-11T21:09:52.106Z,71.20
2019-03-11T21:12:18.163Z,69.50
2019-03-11T21:14:44.267Z,71.90
2019-03-11T21:17:10.300Z,69.70
2019-03-11T21:19:36.361Z,69.70
2019-03-11T21:22:02.476Z,70.50
2019-03-11T21:24:28.915Z,70.80
2019-03-11T21:26:55.407Z,70.40
2019-03-11T21:29:21.836Z,70.30
2019-03-11T21:31:48.158Z,70.70
2019-03-11T21:34:14.443Z,70.20
2019-03-11T21:36:40.618Z,70.10
2019-03-11T21:39:07.203Z,71.50
2019-03-11T21:41:33.431Z,70.90
2019-03-11T21:43:59.624Z,70.80
2019-03-11T21:46:25.780Z,71.10
2019-03-11T21:48:51.910Z,71.30
2019-03-11T21:51:18.263Z,70.80
2019-03-11T21:53:44.723Z,71.80
2019-03-11T21:56:10.815Z,71.30
2019-03-11T21:58:37.220Z,72.30
2019-03-11T22:01:03.316Z,73.20
2019-03-11T22:03:29.420Z,72.20
2019-03-11T22:05:55.650Z,72.80
2019-03-11T22:08:21.662Z,73.50
2019-03-11T22:10:47.694Z,74.30
2019-03-11T22:13:14.038Z,75.20
2019-03-11T22:15:40.061Z,75.20
2019-03-11T22:18:06.066Z,75.00
2019-03-11T22:20:32.113Z,76.40
2019-03-11T22:22:58.450Z,75.60
2019-03-11T22:25:24.479Z,79.40
2019-03-11T22:27:50.722Z,77.20
2019-03-11T22:30:19.528Z,76.70
2019-03-11T22:32:45.539Z,76.60
2019-03-11T22:35:13.324Z,77.10
2019-03-11T22:37:39.556Z,76.80
2019-03-11T22:40:08.406Z,76.70
2019-03-11T22:42:34.414Z,77.90
2019-03-11T22:45:00.518Z,77.20
2019-03-11T22:47:26.575Z,77.90
2019-03-11T22:49:53.028Z,77.90
2019-03-11T22:52:19.051Z,77.70
2019-03-11T22:54:45.057Z,78.70
2019-03-11T22:57:11.391Z,78.20
2019-03-11T22:59:37.423Z,77.70
2019-03-11T23:02:04.443Z,79.60
2019-03-11T23:04:30.450Z,79.10
2019-03-11T23:06:56.482Z,79.10
2019-03-11T23:09:22.501Z,78.70
2019-03-11T23:11:48.623Z,80.30
2019-03-11T23:14:14.643Z,78.80
2019-03-11T23:16:40.902Z,80.10
2019-03-11T23:19:07.141Z,80.70
2019-03-11T23:21:33.494Z,79.80
2019-03-11T23:23:59.498Z,80.40
2019-03-11T23:26:25.750Z,81.60
2019-03-11T23:28:52.073Z,82.50
2019-03-11T23:31:18.103Z,84.60
2019-03-11T23:33:44.112Z,84.40
2019-03-11T23:36:10.177Z,85.00
2019-03-11T23:38:36.181Z,85.90
2019-03-11T23:41:02.206Z,87.20
2019-03-11T23:43:28.498Z,88.30
2019-03-11T23:45:54.514Z,88.30
2019-03-11T23:48:20.532Z,90.00
2019-03-11T23:50:46.786Z,90.10
2019-03-11T23:53:12.810Z,90.20
2019-03-11T23:55:39.145Z,90.50
2019-03-11T23:58:05.145Z,90.40
